createdAt,value
2019-06-10T00:02:46.728Z,18.79
2019-06-10T00:05:51.884Z,18.76
2019-06-10T00:08:58.137Z,18.72
2019-06-10T00:12:04.776Z,18.71
2019-06-10T00:15:10.827Z,18.76
2019-06-10T00:18:34.335Z,18.74
2019-06-10T00:21:22.995Z,18.74
2019-06-10T00:24:27.728Z,18.67
2019-06-10T00:27:32.840Z,18.65
2019-06-10T00:30:37.957Z,18.54
2019-06-10T00:33:43.046Z,18.49
2019-06-10T00:36:47.837Z,18.49
2019-06-10T00:39:52.908Z,18.42
2019-06-10T00:42:57.649Z,18.46
2019-06-10T00:46:05.762Z,18.39
2019-06-10T00:49:12.614Z,18.30
2019-06-10T00:52:16.011Z,18.24
2019-06-10T00:55:21.291Z,18.21
2019-06-10T00:58:28.068Z,18.15
2019-06-10T01:01:32.727Z,18.14
2019-06-10T01:04:37.664Z,18.15
2019-06-10T01:07:42.706Z,18.20
2019-06-10T01:10:47.563Z,18.24
2019-06-10T01:13:52.878Z,18.24
2019-06-10T01:16:57.649Z,18.24
2019-06-10T01:20:03.655Z,18.20
2019-06-10T01:23:09.847Z,18.20
2019-06-10T01:26:16.470Z,18.17
2019-06-10T01:29:21.715Z,18.10
2019-06-10T01:32:26.934Z,18.09
2019-06-10T01:35:31.954Z,18.01
2019-06-10T01:38:36.723Z,18.02
2019-06-10T01:41:41.604Z,17.98
2019-06-10T01:44:46.773Z,18.00
2019-06-10T01:47:51.576Z,18.01
2019-06-10T01:50:56.654Z,18.01
2019-06-10T01:54:01.762Z,18.04
2019-06-10T01:57:07.750Z,18.07
2019-06-10T02:00:19.747Z,18.11
2019-06-10T02:03:23.825Z,18.14
2019-06-10T02:06:28.035Z,18.15
2019-06-10T02:09:32.872Z,18.14
2019-06-10T02:12:37.628Z,18.03
2019-06-10T02:15:42.549Z,18.05
2019-06-10T02:18:59.419Z,18.07
2019-06-10T02:21:53.919Z,17.99
2019-06-10T02:25:01.107Z,18.06
2019-06-10T02:28:06.209Z,17.96
2019-06-10T02:31:14.257Z,17.94
2019-06-10T02:34:21.902Z,17.97
2019-06-10T02:37:31.734Z,17.91
2019-06-10T02:40:33.129Z,17.94
2019-06-10T02:43:38.428Z,17.97
2019-06-10T02:46:44.106Z,17.96
2019-06-10T02:49:59.133Z,17.99
2019-06-10T02:52:56.097Z,17.94
2019-06-10T02:56:03.977Z,17.98
2019-06-10T02:59:07.482Z,18.00
2019-06-10T03:02:13.522Z,18.02
2019-06-10T03:05:21.252Z,18.00
2019-06-10T03:08:28.717Z,17.98
2019-06-10T03:11:35.760Z,17.96
2019-06-10T03:14:38.570Z,17.99
2019-06-10T03:17:43.313Z,17.99
2019-06-10T03:20:48.064Z,17.99
2019-06-10T03:23:53.191Z,17.96
2019-06-10T03:26:57.915Z,17.94
2019-06-10T03:30:14.409Z,17.92
2019-06-10T03:33:13.542Z,17.90
2019-06-10T03:36:16.265Z,17.87
2019-06-10T03:39:23.859Z,17.89
2019-06-10T03:42:28.290Z,17.87
2019-06-10T03:45:33.228Z,17.86
2019-06-10T03:48:38.008Z,17.89
2019-06-10T03:51:43.063Z,17.91
2019-06-10T03:54:47.815Z,17.92
2019-06-10T03:57:52.741Z,17.94
2019-06-10T04:00:57.526Z,17.96
2019-06-10T04:04:02.526Z,17.94
2019-06-10T04:07:07.765Z,17.93
2019-06-10T04:10:13.279Z,17.96
2019-06-10T04:13:19.491Z,17.98
2019-06-10T04:16:26.672Z,17.95
2019-06-10T04:19:32.734Z,17.98
2019-06-10T04:22:37.715Z,18.00
2019-06-10T04:25:43.964Z,18.01
2019-06-10T04:28:48.733Z,17.97
2019-06-10T04:31:53.821Z,17.98
2019-06-10T04:34:58.910Z,17.98
2019-06-10T04:38:03.658Z,17.98
2019-06-10T04:41:08.513Z,18.03
2019-06-10T04:44:13.376Z,18.10
2019-06-10T04:47:18.578Z,18.14
2019-06-10T04:50:33.106Z,18.20
2019-06-10T04:53:32.616Z,18.26
2019-06-10T04:56:37.018Z,18.31
2019-06-10T04:59:42.881Z,18.30
2019-06-10T05:02:48.041Z,18.21
2019-06-10T05:05:52.890Z,18.23
2019-06-10T05:08:57.855Z,18.36
2019-06-10T05:12:03.047Z,18.47
2019-06-10T05:15:08.291Z,18.45
2019-06-10T05:18:13.396Z,18.29
2019-06-10T05:21:19.663Z,18.34
2019-06-10T05:24:26.711Z,18.33
2019-06-10T05:27:33.063Z,18.31
2019-06-10T05:30:38.385Z,18.33
2019-06-10T05:33:44.740Z,18.34
2019-06-10T05:36:52.430Z,18.32
2019-06-10T05:39:56.486Z,18.25
2019-06-10T05:43:02.459Z,18.03
2019-06-10T05:46:07.531Z,18.05
2019-06-10T05:49:12.716Z,18.16
2019-06-10T05:52:18.083Z,18.25
2019-06-10T05:55:24.338Z,18.04
2019-06-10T05:58:32.734Z,17.99
2019-06-10T06:01:38.623Z,18.17
2019-06-10T06:04:43.528Z,18.21
2019-06-10T06:08:01.517Z,18.30
2019-06-10T06:10:55.420Z,18.30
2019-06-10T06:14:02.701Z,18.34
2019-06-10T06:17:08.882Z,18.38
2019-06-10T06:20:14.366Z,18.43
2019-06-10T06:23:19.216Z,18.44
2019-06-10T06:26:24.048Z,18.41
2019-06-10T06:29:29.126Z,18.50
2019-06-10T06:32:36.923Z,18.69
2019-06-10T06:35:46.039Z,18.76
2019-06-10T06:38:48.571Z,18.73
2019-06-10T06:41:53.538Z,18.69
2019-06-10T06:44:59.032Z,18.57
2019-06-10T06:48:03.986Z,18.67
2019-06-10T06:51:08.979Z,18.77
2019-06-10T06:54:13.911Z,18.68
2019-06-10T06:57:18.709Z,18.61
2019-06-10T07:00:48.970Z,18.58
2019-06-10T07:03:40.927Z,18.56
2019-06-10T07:06:46.579Z,18.55
2019-06-10T07:09:54.149Z,18.60
2019-06-10T07:13:02.901Z,18.49
2019-06-10T07:16:08.095Z,18.47
2019-06-10T07:19:13.342Z,18.51
2019-06-10T07:22:18.551Z,18.44
2019-06-10T07:25:23.291Z,18.38
2019-06-10T07:28:28.420Z,18.45
2019-06-10T07:31:36.404Z,18.42
2019-06-10T07:34:42.223Z,18.45
2019-06-10T07:37:47.708Z,18.46
2019-06-10T07:40:53.139Z,18.46
2019-06-10T07:43:58.089Z,18.43
2019-06-10T07:47:02.896Z,18.39
2019-06-10T07:50:08.154Z,18.45
2019-06-10T07:53:13.368Z,18.60
2019-06-10T07:56:18.247Z,18.63
2019-06-10T07:59:23.537Z,18.67
2019-06-10T08:02:28.676Z,18.66
2019-06-10T08:05:34.246Z,18.54
2019-06-10T08:08:39.243Z,18.40
2019-06-10T08:11:46.847Z,18.44
2019-06-10T08:14:53.212Z,18.44
2019-06-10T08:17:57.639Z,18.49
2019-06-10T08:21:03.291Z,18.60
2019-06-10T08:24:08.532Z,18.52
2019-06-10T08:27:13.761Z,18.50
2019-06-10T08:30:26.671Z,18.35
2019-06-10T08:33:25.388Z,18.42
2019-06-10T08:36:33.122Z,18.53
2019-06-10T08:39:38.225Z,18.55
2019-06-10T08:42:44.138Z,18.62
2019-06-10T08:45:49.838Z,18.55
2019-06-10T08:48:54.676Z,18.55
2019-06-10T08:52:02.502Z,18.65
2019-06-10T08:55:06.594Z,18.62
2019-06-10T08:58:12.885Z,18.67
2019-06-10T09:01:18.116Z,18.83
2019-06-10T09:04:23.041Z,18.89
2019-06-10T09:07:28.262Z,19.05
2019-06-10T09:10:33.941Z,19.39
2019-06-10T09:13:39.715Z,19.36
2019-06-10T09:16:48.640Z,19.25
2019-06-10T09:19:54.201Z,19.23
2019-06-10T09:23:16.762Z,19.39
2019-06-10T09:26:05.933Z,19.53
2019-06-10T09:29:13.433Z,19.75
2019-06-10T09:32:17.942Z,19.88
2019-06-10T09:35:24.179Z,20.07
2019-06-10T09:38:29.121Z,20.07
2019-06-10T09:41:40.964Z,20.11
2019-06-10T09:44:45.119Z,20.02
2019-06-10T09:47:53.355Z,19.89
2019-06-10T09:50:58.528Z,19.75
2019-06-10T09:54:06.371Z,19.85
2019-06-10T09:57:08.495Z,20.28
2019-06-10T10:00:15.325Z,20.51
2019-06-10T10:03:23.255Z,20.76
2019-06-10T10:06:27.571Z,20.82
2019-06-10T10:09:36.856Z,20.83
2019-06-10T10:12:41.727Z,20.53
2019-06-10T10:15:48.112Z,20.51
2019-06-10T10:19:00.355Z,20.53
2019-06-10T10:22:00.007Z,20.66
2019-06-10T10:25:05.371Z,20.77
2019-06-10T10:28:13.389Z,20.80
2019-06-10T10:31:19.574Z,20.93
2019-06-10T10:34:24.510Z,20.97
2019-06-10T10:37:29.336Z,21.35
2019-06-10T10:40:34.198Z,21.74
2019-06-10T10:43:39.119Z,21.73
2019-06-10T10:46:45.269Z,21.56
2019-06-10T10:49:55.527Z,21.38
2019-06-10T10:52:57.437Z,21.42
2019-06-10T10:56:05.291Z,21.28
2019-06-10T10:59:12.626Z,20.96
2019-06-10T11:02:16.739Z,20.98
2019-06-10T11:05:33.956Z,21.06
2019-06-10T11:08:38.754Z,21.14
2019-06-10T11:11:45.723Z,21.34
2019-06-10T11:14:54.894Z,21.41
2019-06-10T11:17:58.784Z,21.36
2019-06-10T11:21:05.291Z,21.24
2019-06-10T11:24:14.229Z,21.03
2019-06-10T11:27:17.230Z,21.09
2019-06-10T11:30:22.272Z,21.26
2019-06-10T11:33:27.485Z,21.28
2019-06-10T11:36:32.709Z,21.27
2019-06-10T11:39:38.815Z,21.35
2019-06-10T11:42:44.594Z,21.31
2019-06-10T11:45:56.885Z,21.24
2019-06-10T11:48:58.907Z,21.16
2019-06-10T11:52:03.338Z,21.15
2019-06-10T11:55:15.287Z,21.22
2019-06-10T11:58:15.182Z,21.22
2019-06-10T12:01:22.675Z,21.48
2019-06-10T12:04:26.760Z,22.09
2019-06-10T12:07:33.190Z,22.45
2019-06-10T12:10:39.092Z,22.27
2019-06-10T12:13:43.904Z,22.39
2019-06-10T12:17:17.788Z,22.62
2019-06-10T12:19:59.402Z,22.44
2019-06-10T12:23:04.551Z,22.20
2019-06-10T12:26:09.470Z,22.06
2019-06-10T12:29:14.340Z,22.25
2019-06-10T12:32:19.217Z,22.37
2019-06-10T12:35:24.317Z,22.31
2019-06-10T12:38:29.105Z,22.28
2019-06-10T12:41:34.057Z,22.11
2019-06-10T12:44:38.968Z,22.14
2019-06-10T12:47:43.847Z,22.04
2019-06-10T12:50:48.631Z,21.88
2019-06-10T12:53:53.685Z,21.89
2019-06-10T12:57:00.452Z,21.79
2019-06-10T13:00:19.198Z,21.51
2019-06-10T13:03:15.821Z,21.17
2019-06-10T13:06:23.554Z,21.24
2019-06-10T13:09:29.529Z,21.10
2019-06-10T13:12:34.361Z,20.95
2019-06-10T13:15:42.607Z,20.85
2019-06-10T13:18:46.195Z,20.77
2019-06-10T13:21:52.927Z,20.69
2019-06-10T13:25:00.407Z,20.75
2019-06-10T13:28:06.808Z,20.69
2019-06-10T13:31:14.082Z,20.58
2019-06-10T13:34:19.029Z,20.47
2019-06-10T13:37:23.886Z,20.51
2019-06-10T13:40:31.887Z,20.49
2019-06-10T13:43:36.620Z,20.39
2019-06-10T13:46:42.516Z,20.37
2019-06-10T13:49:49.586Z,20.28
2019-06-10T13:52:54.778Z,20.37
2019-06-10T13:56:23.533Z,20.41
2019-06-10T13:59:09.501Z,20.41
2019-06-10T14:02:13.637Z,20.49
2019-06-10T14:05:18.696Z,20.43
2019-06-10T14:08:24.317Z,20.46
2019-06-10T14:11:30.163Z,20.47
2019-06-10T14:14:35.273Z,20.51
2019-06-10T14:17:41.891Z,20.49
2019-06-10T14:20:47.090Z,20.49
2019-06-10T14:23:52.275Z,20.48
2019-06-10T14:26:57.145Z,20.39
2019-06-10T14:30:04.945Z,20.36
2019-06-10T14:33:14.249Z,20.31
2019-06-10T14:36:17.041Z,20.28
2019-06-10T14:39:22.295Z,20.29
2019-06-10T14:42:27.069Z,20.39
2019-06-10T14:45:32.674Z,20.45
2019-06-10T14:48:37.573Z,20.41
2019-06-10T14:51:43.125Z,20.32
2019-06-10T14:54:48.196Z,20.29
2019-06-10T14:57:53.296Z,20.30
2019-06-10T15:00:58.644Z,20.40
2019-06-10T15:04:03.880Z,20.54
2019-06-10T15:07:09.353Z,20.44
2019-06-10T15:10:17.496Z,20.47
2019-06-10T15:13:23.434Z,20.46
2019-06-10T15:16:28.747Z,20.53
2019-06-10T15:19:33.553Z,20.54
2019-06-10T15:22:39.464Z,20.60
2019-06-10T15:25:52.394Z,20.52
2019-06-10T15:28:52.207Z,20.60
2019-06-10T15:32:10.604Z,20.54
2019-06-10T15:35:05.005Z,20.62
2019-06-10T15:38:12.276Z,20.53
2019-06-10T15:41:19.514Z,20.46
2019-06-10T15:44:37.245Z,20.54
2019-06-10T15:47:29.492Z,20.55
2019-06-10T15:50:34.466Z,20.44
2019-06-10T15:53:39.467Z,20.48
2019-06-10T15:56:51.904Z,20.54
2019-06-10T15:59:52.125Z,20.46
2019-06-10T16:02:57.049Z,20.60
2019-06-10T16:06:03.298Z,20.46
2019-06-10T16:09:08.626Z,20.42
2019-06-10T16:12:16.086Z,20.36
2019-06-10T16:15:24.313Z,20.32
2019-06-10T16:18:28.151Z,20.30
2019-06-10T16:21:33.100Z,20.28
2019-06-10T16:24:37.884Z,20.21
2019-06-10T16:27:50.719Z,20.25
2019-06-10T16:30:49.982Z,20.22
2019-06-10T16:33:55.071Z,20.14
2019-06-10T16:37:02.313Z,20.11
2019-06-10T16:40:08.272Z,20.11
2019-06-10T16:43:13.465Z,20.09
2019-06-10T16:46:18.312Z,20.07
2019-06-10T16:49:23.806Z,20.08
2019-06-10T16:52:30.372Z,19.97
2019-06-10T16:55:35.212Z,19.90
2019-06-10T16:58:40.366Z,19.96
2019-06-10T17:01:45.290Z,19.81
2019-06-10T17:04:52.646Z,19.68
2019-06-10T17:07:57.337Z,19.60
2019-06-10T17:11:03.333Z,19.70
2019-06-10T17:14:08.621Z,19.69
2019-06-10T17:17:13.769Z,19.67
2019-06-10T17:20:18.695Z,19.67
2019-06-10T17:23:26.924Z,19.61
2019-06-10T17:26:37.375Z,19.53
2019-06-10T17:29:37.356Z,19.50
2019-06-10T17:32:42.683Z,19.60
2019-06-10T17:35:47.685Z,19.68
2019-06-10T17:38:52.949Z,19.78
2019-06-10T17:41:58.162Z,19.74
2019-06-10T17:45:03.075Z,19.73
2019-06-10T17:48:08.457Z,19.62
2019-06-10T17:51:13.312Z,19.62
2019-06-10T17:54:18.503Z,19.62
2019-06-10T17:57:26.555Z,19.56
2019-06-10T18:00:36.075Z,19.60
2019-06-10T18:03:40.012Z,19.53
2019-06-10T18:06:45.244Z,19.51
2019-06-10T18:09:50.093Z,19.51
2019-06-10T18:12:55.398Z,19.54
2019-06-10T18:16:02.683Z,19.50
2019-06-10T18:19:07.081Z,19.52
2019-06-10T18:22:12.565Z,19.50
2019-06-10T18:25:17.894Z,19.55
2019-06-10T18:28:24.951Z,19.56
2019-06-10T18:31:33.682Z,19.60
2019-06-10T18:34:38.085Z,19.57
2019-06-10T18:37:43.026Z,19.52
2019-06-10T18:40:48.247Z,19.50
2019-06-10T18:43:54.206Z,19.44
2019-06-10T18:46:59.036Z,19.44
2019-06-10T18:50:04.818Z,19.44
2019-06-10T18:53:12.831Z,19.44
2019-06-10T18:56:16.512Z,19.42
2019-06-10T18:59:21.701Z,19.38
2019-06-10T19:02:28.232Z,19.35
2019-06-10T19:05:36.351Z,19.36
2019-06-10T19:08:44.309Z,19.30
2019-06-10T19:11:49.329Z,19.32
2019-06-10T19:14:54.357Z,19.29
2019-06-10T19:17:59.160Z,19.30
2019-06-10T19:21:07.709Z,19.28
2019-06-10T19:24:12.803Z,19.31
2019-06-10T19:27:17.244Z,19.33
2019-06-10T19:30:23.389Z,19.31
2019-06-10T19:33:28.207Z,19.32
2019-06-10T19:36:33.625Z,19.27
2019-06-10T19:39:45.158Z,19.24
2019-06-10T19:42:45.446Z,19.20
2019-06-10T19:45:52.780Z,19.23
2019-06-10T19:49:02.847Z,19.22
2019-06-10T19:52:03.466Z,19.22
2019-06-10T19:55:08.819Z,19.24
2019-06-10T19:58:13.965Z,19.22
2019-06-10T20:01:18.784Z,19.26
2019-06-10T20:04:24.170Z,19.19
2019-06-10T20:07:28.981Z,19.11
2019-06-10T20:10:34.096Z,19.07
2019-06-10T20:13:38.939Z,18.92
2019-06-10T20:16:45.969Z,18.88
2019-06-10T20:19:50.925Z,18.85
2019-06-10T20:22:57.500Z,18.87
2019-06-10T20:26:02.567Z,18.92
2019-06-10T20:29:07.515Z,18.88
2019-06-10T20:32:13.311Z,18.77
2019-06-10T20:35:19.443Z,18.72
2019-06-10T20:38:24.591Z,18.69
2019-06-10T20:41:29.414Z,18.60
2019-06-10T20:44:34.262Z,18.57
2019-06-10T20:47:39.579Z,18.58
2019-06-10T20:50:47.358Z,18.61
2019-06-10T20:53:53.308Z,18.62
2019-06-10T20:56:58.685Z,18.64
2019-06-10T21:00:18.549Z,18.66
2019-06-10T21:03:12.024Z,18.62
2019-06-10T21:06:18.784Z,18.58
2019-06-10T21:09:25.737Z,18.55
2019-06-10T21:12:32.706Z,18.54
2019-06-10T21:15:37.265Z,18.53
2019-06-10T21:18:45.540Z,18.50
2019-06-10T21:21:50.354Z,18.45
2019-06-10T21:24:55.584Z,18.33
2019-06-10T21:28:03.056Z,18.21
2019-06-10T21:31:07.819Z,18.14
2019-06-10T21:34:13.292Z,18.11
2019-06-10T21:37:18.378Z,18.08
2019-06-10T21:40:23.544Z,18.01
2019-06-10T21:43:28.768Z,17.99
2019-06-10T21:46:34.037Z,18.00
2019-06-10T21:49:38.865Z,17.98
2019-06-10T21:52:45.764Z,17.97
2019-06-10T21:55:51.409Z,17.96
2019-06-10T21:58:57.016Z,17.90
2019-06-10T22:02:03.669Z,17.86
2019-06-10T22:05:12.303Z,17.79
2019-06-10T22:08:17.591Z,17.82
2019-06-10T22:11:23.374Z,17.83
2019-06-10T22:14:28.779Z,17.85
2019-06-10T22:17:33.640Z,17.82
2019-06-10T22:20:38.512Z,17.88
2019-06-10T22:23:44.670Z,17.80
2019-06-10T22:26:51.021Z,17.79
2019-06-10T22:29:57.175Z,17.85
2019-06-10T22:33:03.532Z,17.71
2019-06-10T22:36:08.462Z,17.68
2019-06-10T22:39:13.363Z,17.70
2019-06-10T22:42:18.706Z,17.66
2019-06-10T22:45:23.504Z,17.58
2019-06-10T22:48:28.936Z,17.53
2019-06-10T22:51:33.742Z,17.52
2019-06-10T22:54:38.999Z,17.48
2019-06-10T22:57:44.161Z,17.45
2019-06-10T23:00:49.990Z,17.38
2019-06-10T23:03:56.313Z,17.35
2019-06-10T23:07:03.183Z,17.38
2019-06-10T23:10:08.669Z,17.38
2019-06-10T23:13:16.364Z,17.29
2019-06-10T23:16:22.124Z,17.34
2019-06-10T23:19:27.305Z,17.20
2019-06-10T23:22:32.238Z,17.31
2019-06-10T23:25:37.078Z,17.24
2019-06-10T23:28:42.411Z,17.26
2019-06-10T23:31:54.218Z,17.12
2019-06-10T23:34:57.753Z,17.11
2019-06-10T23:38:04.996Z,17.14
2019-06-10T23:41:08.323Z,17.17
2019-06-10T23:44:13.119Z,17.09
2019-06-10T23:47:18.191Z,16.98
2019-06-10T23:50:22.994Z,16.94
2019-06-10T23:53:27.746Z,16.90
2019-06-10T23:56:32.683Z,17.01
2019-06-10T23:59:37.804Z,17.02
